Terminal Aerodrome Forecast
Issued by NWS Pueblo, CO

Home | Current Version | Previous Version | Text Only | Print | Product List | Glossary On
Versions: 1 2 3 4 5 6 7 8 9 10 11 12 13 14 15 16 17
000
FTUS45 KPUB 301735
TAFPUB
TAF
KPUB 301735Z 3018/3118 08006KT P6SM FEW080 BKN120
     FM302100 13010KT P6SM VCTS SCT070CB BKN110
     FM310200 33008KT P6SM SCT080 BKN120
     FM310600 VRB06KT P6SM SCT120 SCT200
     FM311700 12006KT P6SM FEW110 SCT200=

USA.gov is the U.S. government's official web portal to all federal, state and local government web resources and services.